Time;durP1;ratioP1;P1;durP2;ratioP2;P2;SDS_P1;SDS_P2;PMS_P1;PMS_P2;Temp;Humidity;BMP_temperature;BMP_pressure;BME280_temperature;BME280_humidity;BME280_pressure;Samples;Min_cycle;Max_cycle;Signal;HPM_P1;HPM_P2
2021/01/01 00:02:20;;;;;;;208.40;113.47;;;3.00;99.90;;;;;;5092798;28;20032;-72
2021/01/01 00:04:45;;;;;;;150.52;79.93;;;3.00;99.90;;;;;;5093335;28;20025;-72
2021/01/01 00:07:11;;;;;;;160.93;86.80;;;3.00;99.90;;;;;;5092398;28;20112;-71
2021/01/01 00:09:36;;;;;;;140.95;74.70;;;2.90;99.90;;;;;;5093866;28;20394;-71
2021/01/01 00:12:02;;;;;;;97.80;53.15;;;2.90;99.90;;;;;;5093549;28;20384;-72
2021/01/01 00:14:28;;;;;;;98.35;52.58;;;2.90;99.90;;;;;;5093500;28;20089;-72
2021/01/01 00:16:53;;;;;;;114.05;60.95;;;3.00;99.90;;;;;;5094281;28;20024;-72
2021/01/01 00:19:19;;;;;;;82.38;45.97;;;3.00;99.90;;;;;;5097122;28;20018;-72
2021/01/01 00:21:44;;;;;;;66.30;37.35;;;2.90;99.90;;;;;;5097382;28;20103;-71
2021/01/01 00:24:10;;;;;;;70.28;40.13;;;2.90;99.90;;;;;;5096164;28;20082;-72
2021/01/01 00:26:36;;;;;;;99.57;54.03;;;2.90;99.90;;;;;;5096052;28;20030;-72
2021/01/01 00:29:01;;;;;;;114.57;62.15;;;2.90;99.90;;;;;;5096369;28;20389;-72
2021/01/01 00:31:28;;;;;;;88.13;51.03;;;2.90;99.90;;;;;;5097519;28;20020;-71
2021/01/01 00:33:53;;;;;;;76.03;43.17;;;2.80;99.90;;;;;;5095388;28;20489;-72
2021/01/01 00:36:21;;;;;;;73.05;42.17;;;2.80;99.90;;;;;;5097129;28;20020;-72
2021/01/01 00:38:52;;;;;;;77.20;45.10;;;2.80;99.90;;;;;;5095818;28;20024;-73
2021/01/01 00:41:23;;;;;;;80.28;45.83;;;2.80;99.90;;;;;;5095618;28;20020;-72
2021/01/01 00:43:49;;;;;;;80.47;45.75;;;2.80;99.90;;;;;;5097253;28;20024;-72
2021/01/01 00:46:14;;;;;;;83.03;44.88;;;2.80;99.90;;;;;;5096988;28;20532;-72
2021/01/01 00:48:40;;;;;;;81.13;43.05;;;2.70;99.90;;;;;;5096895;28;20020;-71
2021/01/01 00:51:05;;;;;;;70.15;38.53;;;2.70;99.90;;;;;;5097126;28;20027;-72
2021/01/01 00:53:31;;;;;;;63.47;35.17;;;2.80;99.90;;;;;;5096801;28;20035;-72
2021/01/01 00:55:56;;;;;;;63.90;35.40;;;2.80;99.90;;;;;;5096948;28;20024;-72
2021/01/01 00:58:22;;;;;;;65.43;35.80;;;2.80;99.90;;;;;;5095829;28;20103;-72
2021/01/01 01:00:47;;;;;;;69.60;37.90;;;2.80;99.90;;;;;;5095464;28;20077;-72
2021/01/01 01:03:13;;;;;;;69.10;37.38;;;2.80;99.90;;;;;;5096322;28;20028;-72
2021/01/01 01:05:38;;;;;;;64.72;36.50;;;2.80;99.90;;;;;;5095840;28;20024;-72
2021/01/01 01:08:04;;;;;;;67.93;35.25;;;2.80;99.90;;;;;;5096214;28;20103;-72
2021/01/01 01:10:30;;;;;;;64.30;34.13;;;2.90;99.90;;;;;;5096756;28;20024;-71
2021/01/01 01:12:55;;;;;;;65.90;35.53;;;2.90;99.90;;;;;;5096399;28;20116;-72
2021/01/01 01:15:21;;;;;;;67.00;35.92;;;2.90;99.90;;;;;;5096537;28;20047;-72
2021/01/01 01:17:46;;;;;;;65.10;35.92;;;2.90;99.90;;;;;;5096589;28;20381;-72
2021/01/01 01:20:12;;;;;;;67.43;34.50;;;2.80;99.90;;;;;;5096528;28;20052;-71
2021/01/01 01:22:38;;;;;;;65.00;34.50;;;2.90;99.90;;;;;;5096514;28;20073;-72
2021/01/01 01:25:04;;;;;;;69.25;36.30;;;3.00;99.90;;;;;;5094931;28;20415;-71
2021/01/01 01:27:30;;;;;;;61.00;33.28;;;2.90;99.90;;;;;;5095834;28;20051;-71
2021/01/01 01:29:55;;;;;;;95.90;49.20;;;2.80;99.90;;;;;;5096051;28;20465;-72
2021/01/01 01:32:21;;;;;;;154.98;81.15;;;2.70;99.90;;;;;;5094853;28;20038;-71
2021/01/01 01:34:47;;;;;;;273.27;144.93;;;2.70;99.90;;;;;;5095499;28;20044;-71
2021/01/01 01:37:12;;;;;;;145.52;73.03;;;2.70;99.90;;;;;;5095692;28;20487;-71
2021/01/01 01:39:38;;;;;;;121.93;59.20;;;2.70;99.90;;;;;;5094379;28;20097;-71
2021/01/01 01:42:03;;;;;;;101.50;49.53;;;2.70;99.90;;;;;;5094294;28;20028;-72
2021/01/01 01:44:29;;;;;;;87.78;44.50;;;2.70;99.90;;;;;;5077496;28;20028;-72
2021/01/01 01:46:55;;;;;;;93.28;44.78;;;2.70;99.90;;;;;;5096076;28;20495;-72
2021/01/01 01:49:22;;;;;;;91.93;43.53;;;2.70;99.90;;;;;;5095746;28;20527;-72
2021/01/01 01:51:48;;;;;;;91.50;43.00;;;2.70;99.90;;;;;;5095970;28;20035;-72
2021/01/01 01:54:18;;;;;;;92.97;44.15;;;2.70;99.90;;;;;;5095563;28;20020;-71
2021/01/01 01:56:45;;;;;;;104.50;49.03;;;2.80;99.90;;;;;;5095633;28;20019;-71
2021/01/01 01:59:14;;;;;;;92.45;44.72;;;2.80;99.90;;;;;;5093994;28;20024;-71
2021/01/01 02:01:40;;;;;;;96.45;44.95;;;2.80;99.90;;;;;;5095497;28;20032;-71
2021/01/01 02:04:06;;;;;;;109.63;51.95;;;2.80;99.90;;;;;;5095724;28;20024;-71
2021/01/01 02:06:32;;;;;;;98.70;46.60;;;2.70;99.90;;;;;;5095685;28;20027;-71
2021/01/01 02:08:59;;;;;;;96.78;45.40;;;2.70;99.90;;;;;;5095625;28;20023;-71
2021/01/01 02:11:25;;;;;;;102.75;45.47;;;2.60;99.90;;;;;;5095297;28;20446;-72
2021/01/01 02:13:54;;;;;;;99.95;45.22;;;2.70;99.90;;;;;;5095218;28;20055;-72
2021/01/01 02:16:22;;;;;;;104.00;45.72;;;2.70;99.90;;;;;;5095500;28;20027;-71
2021/01/01 02:18:48;;;;;;;104.35;45.53;;;2.70;99.90;;;;;;5095477;28;20420;-72
2021/01/01 02:21:15;;;;;;;95.50;44.42;;;2.70;99.90;;;;;;5094831;28;20055;-72
2021/01/01 02:23:42;;;;;;;102.28;45.95;;;2.70;99.90;;;;;;5093541;28;20020;-71
2021/01/01 02:26:07;;;;;;;95.18;44.63;;;2.70;99.90;;;;;;5093481;28;20052;-71
2021/01/01 02:28:33;;;;;;;101.65;46.38;;;2.70;99.90;;;;;;5095299;28;20047;-72
2021/01/01 02:30:59;;;;;;;95.93;43.67;;;2.70;99.90;;;;;;5094924;28;20506;-71
2021/01/01 02:33:25;;;;;;;101.88;46.45;;;2.70;99.90;;;;;;5094674;28;20042;-72
2021/01/01 02:35:51;;;;;;;94.40;44.92;;;2.70;99.90;;;;;;5095072;28;20024;-72
2021/01/01 02:38:16;;;;;;;105.38;44.45;;;2.70;99.90;;;;;;5095059;28;20030;-71
2021/01/01 02:40:42;;;;;;;100.35;45.72;;;2.70;99.90;;;;;;5094375;28;20028;-72
2021/01/01 02:43:08;;;;;;;103.15;45.03;;;2.70;99.90;;;;;;5094319;28;20444;-72
2021/01/01 02:45:34;;;;;;;102.22;44.22;;;2.70;99.90;;;;;;5094695;28;20024;-71
2021/01/01 02:48:15;;;;;;;99.30;43.42;;;2.70;99.90;;;;;;5092981;28;20036;-72
2021/01/01 02:50:41;;;;;;;107.72;46.03;;;2.70;99.90;;;;;;5093393;28;20034;-72
2021/01/01 02:53:08;;;;;;;103.72;44.40;;;2.80;99.90;;;;;;5093001;28;20028;-71
2021/01/01 02:55:34;;;;;;;101.47;44.60;;;2.80;99.90;;;;;;5093199;28;20024;-71
2021/01/01 02:57:59;;;;;;;94.85;42.53;;;2.70;99.90;;;;;;5094427;28;20026;-71
2021/01/01 03:00:26;;;;;;;99.05;43.25;;;2.70;99.90;;;;;;5094649;28;20020;-71
2021/01/01 03:02:51;;;;;;;100.78;45.63;;;2.70;99.90;;;;;;5076106;28;20020;-72
2021/01/01 03:05:17;;;;;;;98.95;45.03;;;2.70;99.90;;;;;;5094632;28;20074;-71
2021/01/01 03:07:43;;;;;;;98.85;44.25;;;2.70;99.90;;;;;;5093120;28;20028;-72
2021/01/01 03:10:09;;;;;;;93.65;40.67;;;2.70;99.90;;;;;;5094206;28;20036;-72
2021/01/01 03:12:34;;;;;;;96.35;41.45;;;2.70;99.90;;;;;;5094493;28;20405;-72
2021/01/01 03:15:00;;;;;;;97.15;42.63;;;2.60;99.90;;;;;;5092548;28;20031;-71
2021/01/01 03:17:26;;;;;;;100.88;43.45;;;2.60;99.90;;;;;;5092626;28;20064;-72
2021/01/01 03:19:51;;;;;;;104.00;45.83;;;2.60;99.90;;;;;;5094060;28;20024;-72
2021/01/01 03:22:17;;;;;;;105.25;45.92;;;2.50;99.90;;;;;;5094372;28;20047;-72
2021/01/01 03:24:42;;;;;;;116.50;47.83;;;2.50;99.90;;;;;;5094039;28;20493;-72
2021/01/01 03:27:08;;;;;;;112.03;45.17;;;2.50;99.90;;;;;;5094259;28;20028;-72
2021/01/01 03:29:34;;;;;;;113.38;47.30;;;2.50;99.90;;;;;;5093106;28;20028;-72
2021/01/01 03:31:59;;;;;;;114.20;48.50;;;2.50;99.90;;;;;;5094200;28;20039;-72
2021/01/01 03:34:25;;;;;;;107.10;46.03;;;2.50;99.90;;;;;;5092334;28;20047;-72
2021/01/01 03:36:51;;;;;;;96.80;42.58;;;2.40;99.90;;;;;;5094191;28;20020;-71
2021/01/01 03:39:17;;;;;;;102.45;44.97;;;2.40;99.90;;;;;;5094212;28;20017;-71
2021/01/01 03:41:42;;;;;;;108.75;47.28;;;2.40;99.90;;;;;;5093855;28;20025;-72
2021/01/01 03:44:08;;;;;;;98.72;43.15;;;2.40;99.90;;;;;;5075460;28;20085;-71
2021/01/01 03:46:33;;;;;;;100.75;44.53;;;2.40;99.90;;;;;;5094079;28;20067;-71
2021/01/01 03:49:00;;;;;;;110.40;45.25;;;2.40;99.90;;;;;;5092223;28;20031;-71
2021/01/01 03:51:25;;;;;;;101.82;43.70;;;2.40;99.90;;;;;;5096736;28;20099;-72
2021/01/01 03:53:51;;;;;;;121.78;49.90;;;2.40;99.90;;;;;;5097611;28;20103;-71
2021/01/01 03:56:17;;;;;;;116.05;49.17;;;2.40;99.90;;;;;;5097926;28;20020;-71
2021/01/01 03:58:42;;;;;;;125.93;51.67;;;2.40;99.90;;;;;;5080379;28;20048;-71
2021/01/01 04:01:08;;;;;;;119.60;49.42;;;2.40;99.90;;;;;;5097099;28;20024;-72
2021/01/01 04:03:33;;;;;;;123.25;52.85;;;2.40;99.90;;;;;;5096617;28;20024;-72
2021/01/01 04:05:59;;;;;;;118.43;48.58;;;2.40;99.90;;;;;;5080150;28;20024;-71
2021/01/01 04:08:25;;;;;;;120.88;49.75;;;2.40;99.90;;;;;;5097969;28;20085;-71
2021/01/01 04:10:50;;;;;;;116.40;47.88;;;2.40;99.90;;;;;;5096228;28;20028;-72
2021/01/01 04:13:16;;;;;;;113.07;48.97;;;2.40;99.90;;;;;;5096441;28;20028;-72
2021/01/01 04:15:41;;;;;;;113.75;49.40;;;2.40;99.90;;;;;;5097471;28;20032;-72
2021/01/01 04:18:07;;;;;;;112.07;49.33;;;2.40;99.90;;;;;;5097752;28;20020;-72
2021/01/01 04:20:33;;;;;;;131.10;53.55;;;2.30;99.90;;;;;;5097756;28;20020;-71
2021/01/01 04:22:59;;;;;;;129.18;52.90;;;2.30;99.90;;;;;;5096524;28;20024;-71
2021/01/01 04:25:24;;;;;;;128.82;55.63;;;2.40;99.90;;;;;;5097657;28;20030;-71
2021/01/01 04:27:50;;;;;;;120.40;51.13;;;2.50;99.90;;;;;;5096049;28;20358;-71
2021/01/01 04:30:16;;;;;;;130.25;52.47;;;2.50;99.90;;;;;;5096112;28;20107;-71
2021/01/01 04:32:41;;;;;;;129.05;54.65;;;2.50;99.90;;;;;;5097249;28;20073;-71
2021/01/01 04:35:08;;;;;;;129.15;53.10;;;2.50;99.90;;;;;;5095427;28;20040;-71
2021/01/01 04:37:34;;;;;;;132.25;53.55;;;2.60;99.90;;;;;;5097442;28;20030;-71
2021/01/01 04:39:59;;;;;;;127.25;53.15;;;2.60;99.90;;;;;;5097343;28;20099;-71
2021/01/01 04:42:26;;;;;;;129.23;52.67;;;2.60;99.90;;;;;;5097305;28;20032;-71
2021/01/01 04:44:52;;;;;;;127.15;54.08;;;2.50;99.90;;;;;;5097222;28;20024;-71
2021/01/01 04:47:20;;;;;;;115.15;49.10;;;2.50;99.90;;;;;;5078821;28;20201;-71
2021/01/01 04:49:46;;;;;;;121.07;51.08;;;2.50;99.90;;;;;;5095754;28;20024;-71
2021/01/01 04:52:16;;;;;;;129.90;52.30;;;2.50;99.90;;;;;;5078941;28;20168;-71
2021/01/01 04:54:45;;;;;;;126.82;51.80;;;2.50;99.90;;;;;;5096512;28;20086;-71
2021/01/01 04:57:11;;;;;;;116.00;50.33;;;2.50;99.90;;;;;;5095238;28;20485;-71
2021/01/01 04:59:37;;;;;;;131.02;53.05;;;2.40;99.90;;;;;;5095571;28;20024;-71
2021/01/01 05:02:03;;;;;;;131.55;54.03;;;2.40;99.90;;;;;;5094707;28;20355;-71
2021/01/01 05:04:29;;;;;;;127.35;51.05;;;2.40;99.90;;;;;;5096940;28;20028;-71
2021/01/01 05:06:56;;;;;;;128.07;52.03;;;2.50;99.90;;;;;;5095424;28;20524;-71
2021/01/01 05:09:22;;;;;;;125.22;52.28;;;2.50;99.90;;;;;;5094970;28;20538;-71
2021/01/01 05:11:47;;;;;;;139.68;54.72;;;2.40;99.90;;;;;;5096483;28;20016;-71
2021/01/01 05:14:13;;;;;;;144.32;54.97;;;2.40;99.90;;;;;;5096338;28;20024;-71
2021/01/01 05:16:50;;;;;;;134.25;55.83;;;2.40;99.90;;;;;;5096392;28;20107;-71
2021/01/01 05:19:15;;;;;;;136.30;55.72;;;2.40;99.90;;;;;;5096629;28;20020;-72
2021/01/01 05:21:41;;;;;;;127.97;53.75;;;2.40;99.90;;;;;;5096528;28;20103;-71
2021/01/01 05:24:07;;;;;;;129.70;53.28;;;2.40;99.90;;;;;;5096512;28;20461;-71
2021/01/01 05:26:34;;;;;;;125.22;51.63;;;2.50;99.90;;;;;;5095460;28;20118;-72
2021/01/01 05:29:06;;;;;;;124.95;51.70;;;2.50;99.90;;;;;;5094994;28;20084;-71
2021/01/01 05:31:37;;;;;;;128.55;51.58;;;2.40;99.90;;;;;;5096149;28;20052;-71
2021/01/01 05:34:07;;;;;;;120.28;50.67;;;2.40;99.90;;;;;;5094542;28;20071;-71
2021/01/01 05:36:43;;;;;;;120.30;51.30;;;2.50;99.90;;;;;;5094864;28;20016;-71
2021/01/01 05:39:21;;;;;;;119.82;53.22;;;2.50;99.90;;;;;;5096263;28;20054;-71
2021/01/01 05:41:50;;;;;;;125.28;51.78;;;2.50;99.90;;;;;;5094416;28;20025;-71
2021/01/01 05:44:19;;;;;;;129.95;51.95;;;2.50;99.90;;;;;;5096159;28;20047;-71
2021/01/01 05:46:59;;;;;;;124.22;52.10;;;2.40;99.90;;;;;;5095830;28;20077;-71
2021/01/01 05:49:27;;;;;;;122.40;51.08;;;2.40;99.90;;;;;;5095832;28;20369;-71
2021/01/01 05:52:16;;;;;;;133.40;54.47;;;2.40;99.90;;;;;;5077532;28;20028;-71
2021/01/01 05:54:45;;;;;;;133.93;55.65;;;2.30;99.90;;;;;;5094113;28;20020;-71
2021/01/01 05:57:14;;;;;;;133.02;53.75;;;2.40;99.90;;;;;;5077535;28;20038;-71
2021/01/01 05:59:41;;;;;;;137.65;55.50;;;2.30;99.90;;;;;;5095290;28;20024;-71
2021/01/01 06:02:08;;;;;;;145.65;56.00;;;2.20;99.90;;;;;;5094374;28;20069;-71
2021/01/01 06:04:34;;;;;;;142.60;59.13;;;2.20;99.90;;;;;;5095755;28;20119;-71
2021/01/01 06:07:04;;;;;;;136.98;56.20;;;2.20;99.90;;;;;;5094224;28;20472;-71
2021/01/01 06:09:31;;;;;;;134.48;56.45;;;2.10;99.90;;;;;;5094378;28;20111;-71
2021/01/01 06:14:42;;;;;;;130.20;53.75;;;2.20;99.90;;;;;;5112185;27;20404;-76
2021/01/01 06:19:57;;;;;;;124.43;50.60;;;2.20;99.90;;;;;;5112286;27;20401;-72
2021/01/01 06:22:25;;;;;;;124.35;54.33;;;2.10;99.90;;;;;;5110480;28;20035;-72
2021/01/01 06:24:53;;;;;;;125.43;52.38;;;2.00;99.90;;;;;;5111331;28;20047;-71
2021/01/01 06:27:21;;;;;;;121.30;49.78;;;1.90;99.90;;;;;;5110418;28;20066;-71
2021/01/01 06:29:50;;;;;;;126.30;52.13;;;1.80;99.90;;;;;;5111566;28;20525;-71
2021/01/01 06:32:20;;;;;;;122.78;51.30;;;1.80;99.90;;;;;;5110249;28;20028;-71
2021/01/01 06:34:46;;;;;;;127.38;52.28;;;2.00;99.90;;;;;;5111732;28;20024;-71
2021/01/01 06:37:36;;;;;;;122.07;51.92;;;2.00;99.90;;;;;;5111112;28;20534;-71
2021/01/01 06:40:04;;;;;;;124.20;51.22;;;2.00;99.90;;;;;;5111063;28;20077;-72
2021/01/01 06:42:58;;;;;;;127.05;52.70;;;1.90;99.90;;;;;;5110416;28;20047;-71
2021/01/01 06:45:36;;;;;;;135.25;54.70;;;1.80;99.90;;;;;;5109608;28;20070;-71
2021/01/01 06:48:04;;;;;;;127.00;53.30;;;1.70;99.90;;;;;;5110023;28;20491;-71
2021/01/01 06:50:32;;;;;;;132.40;56.25;;;1.80;99.90;;;;;;5110290;28;20046;-71
2021/01/01 06:53:09;;;;;;;120.35;51.10;;;1.80;99.90;;;;;;5109560;28;20058;-71
2021/01/01 06:55:38;;;;;;;131.60;54.78;;;1.80;99.90;;;;;;5109502;28;20024;-71
2021/01/01 06:58:05;;;;;;;126.45;51.85;;;1.70;99.90;;;;;;5109355;28;20435;-71
2021/01/01 07:11:34;;;;;;;132.35;55.40;;;1.70;99.90;;;;;;5112161;27;20123;-74
2021/01/01 07:14:07;;;;;;;126.30;54.23;;;1.40;99.90;;;;;;5111910;28;20052;-75
2021/01/01 07:16:36;;;;;;;128.85;53.65;;;1.40;99.90;;;;;;5111915;28;20257;-74
2021/01/01 07:19:03;;;;;;;122.50;50.97;;;1.40;99.90;;;;;;5111815;28;20457;-74
2021/01/01 07:21:29;;;;;;;134.35;55.58;;;1.40;99.90;;;;;;5111739;28;20026;-74
2021/01/01 07:23:55;;;;;;;133.45;53.40;;;1.40;99.90;;;;;;5109861;28;20020;-75
2021/01/01 07:26:20;;;;;;;143.70;54.38;;;1.50;99.90;;;;;;5110206;28;20024;-75
2021/01/01 07:28:48;;;;;;;143.55;56.00;;;1.50;99.90;;;;;;5111628;28;20020;-76
2021/01/01 07:31:15;;;;;;;152.27;59.53;;;1.40;99.90;;;;;;5111297;28;20028;-75
2021/01/01 07:33:42;;;;;;;162.18;60.88;;;1.40;99.90;;;;;;5111560;28;20020;-75
2021/01/01 07:36:09;;;;;;;173.05;64.15;;;1.40;99.90;;;;;;5111466;28;20027;-76
2021/01/01 07:38:38;;;;;;;162.38;63.50;;;1.40;99.90;;;;;;5111439;28;20490;-75
2021/01/01 07:41:04;;;;;;;150.48;60.83;;;1.40;99.90;;;;;;5109880;28;20031;-76
2021/01/01 07:43:30;;;;;;;151.73;58.17;;;1.50;99.90;;;;;;5111336;28;20016;-75
2021/01/01 07:45:58;;;;;;;147.50;57.80;;;1.70;99.90;;;;;;5110997;28;20024;-75
2021/01/01 07:48:25;;;;;;;140.70;55.95;;;1.70;99.90;;;;;;5110954;28;20024;-76
2021/01/01 07:50:51;;;;;;;152.48;58.83;;;1.80;99.90;;;;;;5109284;28;20024;-74
2021/01/01 07:53:17;;;;;;;155.25;58.67;;;1.70;99.90;;;;;;5126977;27;20020;-75
2021/01/01 07:55:43;;;;;;;155.68;60.95;;;1.70;99.90;;;;;;5110543;28;20016;-75
2021/01/01 07:58:11;;;;;;;140.32;56.17;;;1.70;99.90;;;;;;5110804;28;20026;-76
2021/01/01 08:00:38;;;;;;;144.60;57.95;;;1.70;99.90;;;;;;5111044;28;20028;-76
2021/01/01 08:03:05;;;;;;;144.30;56.90;;;1.70;99.90;;;;;;5110973;28;20024;-76
2021/01/01 08:05:31;;;;;;;144.15;58.45;;;1.80;99.90;;;;;;5110897;28;20024;-76
2021/01/01 08:08:15;;;;;;;141.88;56.10;;;1.80;99.90;;;;;;5110854;28;20030;-76
2021/01/01 08:10:43;;;;;;;136.40;56.78;;;1.80;99.90;;;;;;5110107;28;20051;-76
2021/01/01 08:13:26;;;;;;;140.00;54.45;;;1.80;99.90;;;;;;5110200;28;20428;-76
2021/01/01 08:15:54;;;;;;;144.65;58.78;;;1.90;99.90;;;;;;5110725;28;20115;-76
2021/01/01 08:18:22;;;;;;;154.82;59.80;;;1.80;99.90;;;;;;5110666;28;20032;-76
2021/01/01 08:20:49;;;;;;;145.90;58.13;;;1.80;99.90;;;;;;5106072;28;20025;-76
2021/01/01 08:23:17;;;;;;;149.55;58.42;;;1.80;99.90;;;;;;5096941;28;20430;-76
2021/01/01 08:25:45;;;;;;;148.02;60.22;;;1.80;99.90;;;;;;5095559;28;20016;-76
2021/01/01 08:28:14;;;;;;;151.90;60.88;;;1.80;99.90;;;;;;5096958;28;20160;-76
2021/01/01 08:30:41;;;;;;;136.73;57.78;;;1.90;99.90;;;;;;5096843;28;20028;-76
2021/01/01 08:33:08;;;;;;;148.20;59.95;;;1.90;99.90;;;;;;5095709;28;20016;-76
2021/01/01 08:35:34;;;;;;;148.82;58.95;;;2.00;99.90;;;;;;5095241;28;20500;-76
2021/01/01 08:38:15;;;;;;;145.60;60.78;;;2.00;99.90;;;;;;5096432;28;20022;-76
2021/01/01 08:40:43;;;;;;;133.75;58.00;;;2.10;99.90;;;;;;5096145;28;20024;-76
2021/01/01 08:43:09;;;;;;;143.82;59.60;;;2.10;99.90;;;;;;5095472;28;20019;-76
2021/01/01 08:45:36;;;;;;;138.27;56.50;;;2.20;99.90;;;;;;5096598;28;20020;-76
2021/01/01 08:48:10;;;;;;;140.48;59.25;;;2.30;99.90;;;;;;5096520;28;20528;-76
2021/01/01 08:50:43;;;;;;;143.25;59.13;;;2.20;99.90;;;;;;5096427;28;20029;-76
2021/01/01 08:53:09;;;;;;;131.70;55.28;;;2.20;99.90;;;;;;5096307;28;20020;-76
2021/01/01 08:55:34;;;;;;;136.32;55.85;;;2.30;99.90;;;;;;5096442;28;20081;-76
2021/01/01 08:58:17;;;;;;;148.38;57.83;;;2.40;99.90;;;;;;5096069;28;20020;-76
2021/01/01 09:00:44;;;;;;;143.27;57.85;;;2.40;99.90;;;;;;5094623;28;20031;-76
2021/01/01 09:03:12;;;;;;;147.88;60.25;;;2.40;99.90;;;;;;5096246;28;20032;-76
2021/01/01 09:05:38;;;;;;;133.80;58.33;;;2.40;99.90;;;;;;5095946;28;20031;-76
2021/01/01 09:08:14;;;;;;;130.60;58.47;;;2.40;99.90;;;;;;5095877;28;20040;-76
2021/01/01 09:10:41;;;;;;;133.85;57.80;;;2.50;99.90;;;;;;5095312;28;20047;-76
2021/01/01 09:13:26;;;;;;;127.97;56.70;;;2.60;99.90;;;;;;5096087;28;20129;-76
2021/01/01 09:16:01;;;;;;;126.13;56.38;;;2.60;99.90;;;;;;5095975;28;20027;-76
2021/01/01 09:18:28;;;;;;;136.50;57.53;;;2.70;99.90;;;;;;5094515;28;20048;-76
2021/01/01 09:21:11;;;;;;;124.65;58.58;;;2.70;99.90;;;;;;5095928;28;20417;-76
2021/01/01 09:23:37;;;;;;;129.18;56.95;;;2.90;99.90;;;;;;5095631;28;20052;-76
2021/01/01 09:26:04;;;;;;;121.78;55.03;;;2.80;99.90;;;;;;5095808;28;20469;-76
2021/01/01 09:28:30;;;;;;;124.53;57.13;;;2.80;99.90;;;;;;5094350;28;20028;-76
2021/01/01 09:30:56;;;;;;;117.03;54.92;;;2.90;99.90;;;;;;5095645;28;20457;-76
2021/01/01 09:33:21;;;;;;;120.55;54.35;;;3.10;99.90;;;;;;5094421;28;20073;-76
2021/01/01 09:35:47;;;;;;;117.10;53.92;;;3.00;99.90;;;;;;5095367;28;20132;-76
2021/01/01 09:38:13;;;;;;;117.85;55.30;;;3.00;99.90;;;;;;5095371;28;20020;-76
2021/01/01 09:40:38;;;;;;;116.47;53.55;;;3.00;99.90;;;;;;5095468;28;20059;-76
2021/01/01 09:43:05;;;;;;;120.65;53.90;;;2.90;99.90;;;;;;5095681;28;20032;-76
2021/01/01 09:45:32;;;;;;;119.15;55.20;;;3.00;99.90;;;;;;5095594;28;20457;-76
2021/01/01 09:47:58;;;;;;;124.55;56.78;;;3.00;99.90;;;;;;5095559;28;20035;-76
2021/01/01 09:50:23;;;;;;;119.38;55.65;;;3.10;99.90;;;;;;5094190;28;20020;-76
2021/01/01 09:52:49;;;;;;;116.68;54.00;;;3.20;99.90;;;;;;5095319;28;20028;-76
2021/01/01 09:55:15;;;;;;;119.95;53.38;;;3.20;99.90;;;;;;5094989;28;20024;-76
2021/01/01 09:57:41;;;;;;;113.13;53.60;;;3.40;99.90;;;;;;5093414;28;20028;-77
2021/01/01 10:00:10;;;;;;;107.63;51.78;;;3.50;99.90;;;;;;5095157;28;20480;-76
2021/01/01 10:02:36;;;;;;;117.20;54.67;;;3.50;99.90;;;;;;5094793;28;20103;-76
2021/01/01 10:05:02;;;;;;;117.63;54.58;;;3.40;99.90;;;;;;5095043;28;20047;-76
2021/01/01 10:07:29;;;;;;;105.93;52.05;;;3.50;99.90;;;;;;5094992;28;20093;-76
2021/01/01 10:09:54;;;;;;;108.97;52.92;;;3.50;99.90;;;;;;5094439;28;20036;-76
2021/01/01 10:12:20;;;;;;;113.80;55.72;;;3.50;99.90;;;;;;5076472;28;20027;-77
2021/01/01 10:14:45;;;;;;;113.85;55.67;;;3.60;99.90;;;;;;5094853;28;20016;-76
2021/01/01 10:17:11;;;;;;;114.68;56.45;;;3.70;99.90;;;;;;5094342;28;20097;-76
2021/01/01 10:19:41;;;;;;;115.38;55.85;;;3.80;99.90;;;;;;5094819;28;20067;-76
2021/01/01 10:22:07;;;;;;;107.85;51.85;;;4.10;99.90;;;;;;5094546;28;20103;-76
2021/01/01 10:24:33;;;;;;;104.90;50.97;;;4.30;99.90;;;;;;5094495;28;20020;-77
2021/01/01 10:26:59;;;;;;;100.32;50.95;;;4.40;99.90;;;;;;5094726;28;20035;-77
2021/01/01 10:29:24;;;;;;;97.32;49.95;;;4.20;99.90;;;;;;5094537;28;20456;-76
2021/01/01 10:31:50;;;;;;;102.38;49.85;;;4.10;99.90;;;;;;5094640;28;20476;-76
2021/01/01 10:34:15;;;;;;;102.38;51.85;;;4.10;99.90;;;;;;5094550;28;20024;-77
2021/01/01 10:36:41;;;;;;;98.53;49.65;;;4.20;99.90;;;;;;5094281;28;20489;-77
2021/01/01 10:39:08;;;;;;;103.07;51.05;;;4.80;99.90;;;;;;5094232;28;20038;-76
2021/01/01 10:41:35;;;;;;;92.75;48.25;;;5.00;99.90;;;;;;5094186;28;20023;-77
2021/01/01 10:44:01;;;;;;;94.35;47.45;;;5.50;99.90;;;;;;5093850;28;20063;-77
2021/01/01 10:46:26;;;;;;;87.28;44.97;;;6.20;99.90;;;;;;5094366;28;20443;-77
2021/01/01 10:48:52;;;;;;;83.32;45.13;;;6.60;99.90;;;;;;5094086;28;20028;-77
2021/01/01 10:51:26;;;;;;;83.07;44.53;;;7.10;99.90;;;;;;5092688;28;20381;-77
2021/01/01 10:53:52;;;;;;;81.85;43.97;;;7.50;99.90;;;;;;5094293;28;20035;-77
2021/01/01 10:56:27;;;;;;;77.50;42.22;;;7.90;99.90;;;;;;5094230;28;20012;-77
2021/01/01 10:58:53;;;;;;;80.82;44.67;;;8.10;99.90;;;;;;5094194;28;20021;-77
2021/01/01 11:01:20;;;;;;;72.63;43.00;;;8.20;99.90;;;;;;5094160;28;20085;-77
2021/01/01 11:03:47;;;;;;;75.85;42.28;;;8.00;99.90;;;;;;5094178;28;20383;-77
2021/01/01 11:06:13;;;;;;;84.35;44.72;;;7.80;99.90;;;;;;5093883;28;20048;-77
2021/01/01 11:08:40;;;;;;;76.20;42.00;;;7.70;99.90;;;;;;5093886;28;20031;-77
2021/01/01 11:11:06;;;;;;;80.32;42.53;;;8.10;99.90;;;;;;5093406;28;20083;-77
2021/01/01 11:13:32;;;;;;;74.85;41.28;;;8.00;99.90;;;;;;5094077;28;20020;-78
2021/01/01 12:22:44;;;;;;;77.32;37.35;;;6.30;99.90;;;;;;5096362;28;20052;-76
2021/01/01 12:25:11;;;;;;;76.20;38.40;;;6.20;99.90;;;;;;5097006;28;20350;-77
2021/01/01 12:27:38;;;;;;;84.72;41.20;;;6.10;99.90;;;;;;5096428;28;20103;-77
2021/01/01 12:30:06;;;;;;;86.38;42.58;;;6.20;99.90;;;;;;5096290;28;20034;-77
2021/01/01 12:32:32;;;;;;;88.53;41.80;;;6.20;99.90;;;;;;5096853;28;20068;-77
2021/01/01 12:34:59;;;;;;;75.07;37.67;;;6.20;99.90;;;;;;5096771;28;20022;-77
2021/01/01 12:37:25;;;;;;;85.45;42.72;;;6.00;99.90;;;;;;5096715;28;20020;-77
2021/01/01 12:39:50;;;;;;;85.20;42.70;;;5.70;99.90;;;;;;5096663;28;20024;-78
2021/01/01 12:42:16;;;;;;;93.57;44.50;;;5.80;99.90;;;;;;5096680;28;20031;-77
2021/01/01 12:44:41;;;;;;;96.68;45.03;;;5.70;99.90;;;;;;5096644;28;20020;-77
2021/01/01 12:47:07;;;;;;;89.78;44.53;;;5.80;99.90;;;;;;5095358;28;20050;-77
2021/01/01 12:49:33;;;;;;;88.38;42.63;;;5.80;99.90;;;;;;5096427;28;20032;-77
2021/01/01 12:51:59;;;;;;;90.05;44.45;;;5.70;99.90;;;;;;5096236;28;20043;-77
2021/01/01 12:54:25;;;;;;;92.95;42.80;;;5.60;99.90;;;;;;5095270;28;20457;-77
2021/01/01 12:56:50;;;;;;;91.93;43.25;;;5.50;99.90;;;;;;5096417;28;20519;-77
2021/01/01 12:59:16;;;;;;;93.63;44.42;;;5.50;99.90;;;;;;5096358;28;20023;-77
2021/01/01 13:01:41;;;;;;;99.57;46.33;;;5.40;99.90;;;;;;5096336;28;20110;-76
2021/01/01 13:04:07;;;;;;;98.22;45.38;;;5.50;99.90;;;;;;5095099;28;20025;-77
2021/01/01 13:06:32;;;;;;;97.05;45.28;;;5.60;99.90;;;;;;5095680;28;20024;-76
2021/01/01 13:08:58;;;;;;;91.78;42.92;;;5.50;99.90;;;;;;5095836;28;20070;-76
2021/01/01 13:11:25;;;;;;;89.78;41.45;;;5.60;99.90;;;;;;5095510;28;20021;-77
2021/01/01 13:13:51;;;;;;;87.90;41.53;;;5.60;99.90;;;;;;5096076;28;20020;-76
2021/01/01 13:16:25;;;;;;;83.97;40.53;;;5.60;99.90;;;;;;5095784;28;20044;-76
2021/01/01 13:18:51;;;;;;;87.53;41.90;;;5.50;99.90;;;;;;5094785;28;20103;-77
2021/01/01 13:21:34;;;;;;;92.10;43.22;;;5.50;99.90;;;;;;5095944;28;20517;-76
2021/01/01 13:24:01;;;;;;;90.15;42.42;;;5.60;99.90;;;;;;5095892;28;20024;-77
2021/01/01 13:26:27;;;;;;;96.65;46.65;;;5.50;99.90;;;;;;5095803;28;20074;-77
2021/01/01 13:28:54;;;;;;;90.13;42.55;;;5.40;99.90;;;;;;5095769;28;20020;-77
2021/01/01 13:31:21;;;;;;;88.25;42.28;;;5.50;99.90;;;;;;5095380;28;20020;-76
2021/01/01 13:33:49;;;;;;;84.35;42.90;;;5.50;99.90;;;;;;5094467;28;20035;-77
2021/01/01 13:36:17;;;;;;;83.45;40.60;;;5.50;99.90;;;;;;5095554;28;20479;-77
2021/01/01 13:38:43;;;;;;;78.35;38.72;;;5.40;99.90;;;;;;5094617;28;20028;-77
2021/01/01 13:41:10;;;;;;;81.32;41.10;;;5.30;99.90;;;;;;5093691;28;20020;-77
2021/01/01 13:43:37;;;;;;;82.57;41.42;;;5.30;99.90;;;;;;5095132;28;20051;-77
2021/01/01 13:46:03;;;;;;;78.95;41.03;;;5.30;99.90;;;;;;5095189;28;20078;-77
2021/01/01 13:48:29;;;;;;;84.80;40.75;;;5.30;99.90;;;;;;5094843;28;20028;-77
2021/01/01 13:50:54;;;;;;;80.20;38.95;;;5.30;99.90;;;;;;5095223;28;20028;-77
2021/01/01 13:53:20;;;;;;;80.30;38.28;;;5.30;99.90;;;;;;5095296;28;20601;-77
2021/01/01 13:55:46;;;;;;;77.63;38.78;;;5.30;99.90;;;;;;5095247;28;20369;-77